sensor_id;sensor_type;location;lat;lon;timestamp;pressure;altitude;pressure_sealevel;temperature;humidity
16030;BME280;34770;49.272;11.070;2022-12-20T00:01:47;98437.53;;;-0.77;100.00
16030;BME280;34770;49.272;11.070;2022-12-20T00:04:13;98424.41;;;-0.75;100.00
16030;BME280;34770;49.272;11.070;2022-12-20T00:06:38;98422.75;;;-0.76;100.00
16030;BME280;34770;49.272;11.070;2022-12-20T00:09:07;98404.09;;;-0.90;100.00
16030;BME280;34770;49.272;11.070;2022-12-20T00:11:33;98377.25;;;-1.03;100.00
16030;BME280;34770;49.272;11.070;2022-12-20T00:13:58;98421.66;;;-0.81;100.00
16030;BME280;34770;49.272;11.070;2022-12-20T00:16:27;98417.56;;;-0.78;100.00
16030;BME280;34770;49.272;11.070;2022-12-20T00:18:59;98417.31;;;-0.71;100.00
16030;BME280;34770;49.272;11.070;2022-12-20T00:21:24;98423.31;;;-0.74;100.00
16030;BME280;34770;49.272;11.070;2022-12-20T00:23:51;98421.72;;;-0.70;100.00
16030;BME280;34770;49.272;11.070;2022-12-20T00:26:19;98415.94;;;-0.74;100.00
16030;BME280;34770;49.272;11.070;2022-12-20T00:28:45;98408.03;;;-0.70;100.00
16030;BME280;34770;49.272;11.070;2022-12-20T00:31:13;98415.19;;;-0.64;100.00
16030;BME280;34770;49.272;11.070;2022-12-20T00:33:39;98422.25;;;-0.68;100.00
16030;BME280;34770;49.272;11.070;2022-12-20T00:36:06;98413.50;;;-0.70;100.00
16030;BME280;34770;49.272;11.070;2022-12-20T00:38:31;98400.88;;;-0.82;100.00
16030;BME280;34770;49.272;11.070;2022-12-20T00:43:29;98419.50;;;-0.68;100.00
16030;BME280;34770;49.272;11.070;2022-12-20T00:45:55;98410.72;;;-0.75;100.00
16030;BME280;34770;49.272;11.070;2022-12-20T00:48:20;98424.97;;;-0.73;100.00
16030;BME280;34770;49.272;11.070;2022-12-20T00:50:46;98436.47;;;-0.66;100.00
16030;BME280;34770;49.272;11.070;2022-12-20T00:53:11;98431.53;;;-0.69;100.00
16030;BME280;34770;49.272;11.070;2022-12-20T00:55:41;98434.25;;;-0.69;100.00
16030;BME280;34770;49.272;11.070;2022-12-20T00:58:07;98401.69;;;-0.81;100.00
16030;BME280;34770;49.272;11.070;2022-12-20T01:00:32;98431.88;;;-0.60;100.00
16030;BME280;34770;49.272;11.070;2022-12-20T01:02:57;98428.81;;;-0.69;100.00
16030;BME280;34770;49.272;11.070;2022-12-20T01:05:23;98425.25;;;-0.70;100.00
16030;BME280;34770;49.272;11.070;2022-12-20T01:07:48;98375.44;;;-0.87;100.00
16030;BME280;34770;49.272;11.070;2022-12-20T01:10:13;98418.44;;;-0.67;100.00
16030;BME280;34770;49.272;11.070;2022-12-20T01:12:39;98432.94;;;-0.67;100.00
16030;BME280;34770;49.272;11.070;2022-12-20T01:15:05;98426.91;;;-0.63;100.00
16030;BME280;34770;49.272;11.070;2022-12-20T01:17:32;98422.53;;;-0.65;100.00
16030;BME280;34770;49.272;11.070;2022-12-20T01:19:57;98421.72;;;-0.65;100.00
16030;BME280;34770;49.272;11.070;2022-12-20T01:22:22;98379.78;;;-0.91;100.00
16030;BME280;34770;49.272;11.070;2022-12-20T01:24:48;98411.88;;;-0.66;100.00
16030;BME280;34770;49.272;11.070;2022-12-20T01:27:13;98417.84;;;-0.74;100.00
16030;BME280;34770;49.272;11.070;2022-12-20T01:29:38;98407.78;;;-0.63;100.00
16030;BME280;34770;49.272;11.070;2022-12-20T01:32:04;98392.44;;;-0.75;100.00
16030;BME280;34770;49.272;11.070;2022-12-20T01:34:29;98407.25;;;-0.60;100.00
16030;BME280;34770;49.272;11.070;2022-12-20T01:36:54;98409.72;;;-0.59;100.00
16030;BME280;34770;49.272;11.070;2022-12-20T01:39:20;98415.19;;;-0.59;100.00
16030;BME280;34770;49.272;11.070;2022-12-20T01:41:45;98403.16;;;-0.63;100.00
16030;BME280;34770;49.272;11.070;2022-12-20T01:46:43;98405.88;;;-0.63;100.00
16030;BME280;34770;49.272;11.070;2022-12-20T01:49:23;98415.19;;;-0.64;100.00
16030;BME280;34770;49.272;11.070;2022-12-20T01:51:52;98411.88;;;-0.66;100.00
16030;BME280;34770;49.272;11.070;2022-12-20T01:54:23;98403.09;;;-0.73;100.00
16030;BME280;34770;49.272;11.070;2022-12-20T01:56:54;98407.22;;;-0.66;100.00
16030;BME280;34770;49.272;11.070;2022-12-20T01:59:21;98406.94;;;-0.69;100.00
16030;BME280;34770;49.272;11.070;2022-12-20T02:01:47;98407.50;;;-0.67;100.00
16030;BME280;34770;49.272;11.070;2022-12-20T02:04:12;98401.44;;;-0.74;100.00
16030;BME280;34770;49.272;11.070;2022-12-20T02:06:38;98404.19;;;-0.69;100.00
16030;BME280;34770;49.272;11.070;2022-12-20T02:09:04;98412.16;;;-0.68;100.00
16030;BME280;34770;49.272;11.070;2022-12-20T02:11:52;98392.72;;;-0.71;100.00
16030;BME280;34770;49.272;11.070;2022-12-20T02:14:40;98401.72;;;-0.76;100.00
16030;BME280;34770;49.272;11.070;2022-12-20T02:17:20;98397.13;;;-0.65;100.00
16030;BME280;34770;49.272;11.070;2022-12-20T02:31:09;98357.41;;;-0.83;100.00
16030;BME280;34770;49.272;11.070;2022-12-20T02:33:36;98348.13;;;-0.82;100.00
16030;BME280;34770;49.272;11.070;2022-12-20T02:36:03;98345.13;;;-0.75;100.00
16030;BME280;34770;49.272;11.070;2022-12-20T02:38:34;98351.94;;;-0.78;100.00
16030;BME280;34770;49.272;11.070;2022-12-20T02:43:38;98340.72;;;-0.76;100.00
16030;BME280;34770;49.272;11.070;2022-12-20T02:46:25;98326.56;;;-0.68;100.00
16030;BME280;34770;49.272;11.070;2022-12-20T02:48:53;98340.22;;;-0.68;100.00
16030;BME280;34770;49.272;11.070;2022-12-20T02:51:22;98326.53;;;-0.73;100.00
16030;BME280;34770;49.272;11.070;2022-12-20T02:53:49;98321.06;;;-0.73;100.00
16030;BME280;34770;49.272;11.070;2022-12-20T02:56:23;98351.16;;;-0.68;100.00
16030;BME280;34770;49.272;11.070;2022-12-20T02:59:06;98351.72;;;-0.61;100.00
16030;BME280;34770;49.272;11.070;2022-12-20T03:01:44;98351.19;;;-0.63;100.00
16030;BME280;34770;49.272;11.070;2022-12-20T03:04:11;98343.53;;;-0.66;100.00
16030;BME280;34770;49.272;11.070;2022-12-20T03:06:39;98342.66;;;-0.72;100.00
16030;BME280;34770;49.272;11.070;2022-12-20T03:09:10;98338.06;;;-0.61;100.00
16030;BME280;34770;49.272;11.070;2022-12-20T03:11:35;98324.09;;;-0.65;100.00
16030;BME280;34770;49.272;11.070;2022-12-20T03:14:01;98325.47;;;-0.67;100.00
16030;BME280;34770;49.272;11.070;2022-12-20T03:16:26;98322.16;;;-0.69;100.00
16030;BME280;34770;49.272;11.070;2022-12-20T03:18:51;98329.84;;;-0.71;100.00
16030;BME280;34770;49.272;11.070;2022-12-20T03:21:17;98327.09;;;-0.71;100.00
16030;BME280;34770;49.272;11.070;2022-12-20T03:23:45;98331.22;;;-0.74;100.00
16030;BME280;34770;49.272;11.070;2022-12-20T03:26:11;98340.22;;;-0.73;100.00
16030;BME280;34770;49.272;11.070;2022-12-20T03:28:36;98331.44;;;-0.75;100.00
16030;BME280;34770;49.272;11.070;2022-12-20T03:31:01;98344.03;;;-0.74;100.00
16030;BME280;34770;49.272;11.070;2022-12-20T03:33:27;98323.25;;;-0.81;100.00
16030;BME280;34770;49.272;11.070;2022-12-20T03:35:52;98323.75;;;-0.89;100.00
16030;BME280;34770;49.272;11.070;2022-12-20T03:38:21;98321.59;;;-0.76;100.00
16030;BME280;34770;49.272;11.070;2022-12-20T03:40:46;98330.06;;;-0.83;100.00
16030;BME280;34770;49.272;11.070;2022-12-20T03:43:11;98324.31;;;-0.87;100.00
16030;BME280;34770;49.272;11.070;2022-12-20T03:45:37;98323.22;;;-0.86;100.00
16030;BME280;34770;49.272;11.070;2022-12-20T03:48:02;98328.69;;;-0.86;100.00
16030;BME280;34770;49.272;11.070;2022-12-20T03:50:27;98332.00;;;-0.84;100.00
16030;BME280;34770;49.272;11.070;2022-12-20T03:52:53;98317.22;;;-0.83;100.00
16030;BME280;34770;49.272;11.070;2022-12-20T03:55:18;98327.63;;;-0.74;100.00
16030;BME280;34770;49.272;11.070;2022-12-20T03:57:43;98325.72;;;-0.74;100.00
16030;BME280;34770;49.272;11.070;2022-12-20T04:00:09;98325.69;;;-0.79;100.00
16030;BME280;34770;49.272;11.070;2022-12-20T04:02:36;98326.53;;;-0.78;100.00
16030;BME280;34770;49.272;11.070;2022-12-20T04:05:02;98314.50;;;-0.77;100.00
16030;BME280;34770;49.272;11.070;2022-12-20T04:07:27;98313.94;;;-0.79;100.00
16030;BME280;34770;49.272;11.070;2022-12-20T04:09:52;98308.47;;;-0.79;100.00
16030;BME280;34770;49.272;11.070;2022-12-20T04:12:18;98309.03;;;-0.77;100.00
16030;BME280;34770;49.272;11.070;2022-12-20T04:14:43;98298.63;;;-0.81;100.00
16030;BME280;34770;49.272;11.070;2022-12-20T04:17:08;98307.69;;;-0.70;100.00
16030;BME280;34770;49.272;11.070;2022-12-20T04:19:34;98307.97;;;-0.71;100.00
16030;BME280;34770;49.272;11.070;2022-12-20T04:21:59;98304.72;;;-0.63;100.00
16030;BME280;34770;49.272;11.070;2022-12-20T04:24:24;98308.25;;;-0.62;100.00
16030;BME280;34770;49.272;11.070;2022-12-20T04:26:50;98316.19;;;-0.66;100.00
16030;BME280;34770;49.272;11.070;2022-12-20T04:29:15;98323.28;;;-0.65;100.00
16030;BME280;34770;49.272;11.070;2022-12-20T04:31:41;98295.91;;;-0.75;100.00
16030;BME280;34770;49.272;11.070;2022-12-20T04:34:06;98300.06;;;-0.68;100.00
16030;BME280;34770;49.272;11.070;2022-12-20T04:36:32;98296.75;;;-0.75;100.00
16030;BME280;34770;49.272;11.070;2022-12-20T04:38:57;98310.72;;;-0.71;100.00
16030;BME280;34770;49.272;11.070;2022-12-20T04:41:23;98301.44;;;-0.65;100.00
16030;BME280;34770;49.272;11.070;2022-12-20T04:43:53;98279.50;;;-0.75;100.00
16030;BME280;34770;49.272;11.070;2022-12-20T04:46:19;98282.00;;;-0.74;100.00
16030;BME280;34770;49.272;11.070;2022-12-20T04:48:45;98284.97;;;-0.75;100.00
16030;BME280;34770;49.272;11.070;2022-12-20T04:51:10;98291.53;;;-0.76;100.00
16030;BME280;34770;49.272;11.070;2022-12-20T04:53:36;98282.81;;;-0.73;100.00
16030;BME280;34770;49.272;11.070;2022-12-20T04:56:19;98296.22;;;-0.67;100.00
16030;BME280;34770;49.272;11.070;2022-12-20T04:58:46;98288.31;;;-0.63;100.00
16030;BME280;34770;49.272;11.070;2022-12-20T05:01:12;98283.94;;;-0.59;100.00
16030;BME280;34770;49.272;11.070;2022-12-20T05:03:38;98277.34;;;-0.68;100.00
16030;BME280;34770;49.272;11.070;2022-12-20T05:06:04;98277.91;;;-0.66;100.00
16030;BME280;34770;49.272;11.070;2022-12-20T05:08:30;98268.91;;;-0.61;100.00
16030;BME280;34770;49.272;11.070;2022-12-20T05:10:55;98261.78;;;-0.62;100.00
16030;BME280;34770;49.272;11.070;2022-12-20T05:13:21;98253.00;;;-0.75;100.00
16030;BME280;34770;49.272;11.070;2022-12-20T05:15:50;98265.88;;;-0.65;100.00
16030;BME280;34770;49.272;11.070;2022-12-20T05:18:16;98280.69;;;-0.56;100.00
16030;BME280;34770;49.272;11.070;2022-12-20T05:20:41;98269.97;;;-0.62;100.00
16030;BME280;34770;49.272;11.070;2022-12-20T05:23:08;98266.69;;;-0.65;100.00
16030;BME280;34770;49.272;11.070;2022-12-20T05:25:53;98258.75;;;-0.61;100.00
16030;BME280;34770;49.272;11.070;2022-12-20T05:28:36;98254.94;;;-0.70;100.00
16030;BME280;34770;49.272;11.070;2022-12-20T05:31:02;98243.72;;;-0.69;100.00
16030;BME280;34770;49.272;11.070;2022-12-20T05:33:27;98224.59;;;-0.69;100.00
16030;BME280;34770;49.272;11.070;2022-12-20T05:35:53;98215.56;;;-0.69;100.00
16030;BME280;34770;49.272;11.070;2022-12-20T05:38:19;98238.56;;;-0.50;100.00
16030;BME280;34770;49.272;11.070;2022-12-20T05:40:47;98239.91;;;-0.57;100.00
16030;BME280;34770;49.272;11.070;2022-12-20T05:43:13;98239.09;;;-0.47;100.00
16030;BME280;34770;49.272;11.070;2022-12-20T05:45:38;98228.16;;;-0.58;100.00
16030;BME280;34770;49.272;11.070;2022-12-20T05:48:04;98232.25;;;-0.50;100.00
16030;BME280;34770;49.272;11.070;2022-12-20T05:50:29;98242.94;;;-0.43;100.00
16030;BME280;34770;49.272;11.070;2022-12-20T05:52:54;98244.88;;;-0.39;100.00
16030;BME280;34770;49.272;11.070;2022-12-20T05:55:20;98251.97;;;-0.38;100.00
16030;BME280;34770;49.272;11.070;2022-12-20T05:57:45;98239.94;;;-0.42;100.00
16030;BME280;34770;49.272;11.070;2022-12-20T06:00:11;98207.34;;;-0.69;100.00
16030;BME280;34770;49.272;11.070;2022-12-20T06:02:37;98239.13;;;-0.42;100.00
16030;BME280;34770;49.272;11.070;2022-12-20T06:05:02;98259.91;;;-0.36;100.00
16030;BME280;34770;49.272;11.070;2022-12-20T06:07:28;98239.41;;;-0.34;100.00
16030;BME280;34770;49.272;11.070;2022-12-20T06:09:54;98257.69;;;-0.34;100.00
16030;BME280;34770;49.272;11.070;2022-12-20T06:12:20;98240.22;;;-0.28;100.00
16030;BME280;34770;49.272;11.070;2022-12-20T06:14:45;98246.50;;;-0.27;100.00
16030;BME280;34770;49.272;11.070;2022-12-20T06:17:11;98246.50;;;-0.33;100.00
16030;BME280;34770;49.272;11.070;2022-12-20T06:19:36;98244.88;;;-0.34;100.00
16030;BME280;34770;49.272;11.070;2022-12-20T06:22:04;98235.28;;;-0.31;100.00
16030;BME280;34770;49.272;11.070;2022-12-20T06:24:29;98251.41;;;-0.24;100.00
16030;BME280;34770;49.272;11.070;2022-12-20T06:26:54;98237.22;;;-0.26;100.00
16030;BME280;34770;49.272;11.070;2022-12-20T06:29:20;98232.03;;;-0.28;100.00
16030;BME280;34770;49.272;11.070;2022-12-20T06:31:48;98232.00;;;-0.23;100.00
16030;BME280;34770;49.272;11.070;2022-12-20T06:34:13;98235.56;;;-0.22;100.00
16030;BME280;34770;49.272;11.070;2022-12-20T06:36:40;98229.00;;;-0.26;100.00
16030;BME280;34770;49.272;11.070;2022-12-20T06:39:05;98239.66;;;-0.25;100.00
16030;BME280;34770;49.272;11.070;2022-12-20T06:41:32;98205.19;;;-0.46;100.00
16030;BME280;34770;49.272;11.070;2022-12-20T06:43:58;98237.47;;;-0.23;100.00
16030;BME280;34770;49.272;11.070;2022-12-20T06:46:23;98245.69;;;-0.18;100.00
16030;BME280;34770;49.272;11.070;2022-12-20T06:48:48;98249.50;;;-0.19;100.00
16030;BME280;34770;49.272;11.070;2022-12-20T06:51:14;98245.69;;;-0.23;100.00
16030;BME280;34770;49.272;11.070;2022-12-20T06:53:41;98263.19;;;-0.19;100.00
16030;BME280;34770;49.272;11.070;2022-12-20T06:56:07;98261.03;;;-0.22;100.00
16030;BME280;34770;49.272;11.070;2022-12-20T06:58:32;98270.88;;;-0.15;100.00
16030;BME280;34770;49.272;11.070;2022-12-20T07:00:57;98263.75;;;-0.17;100.00
16030;BME280;34770;49.272;11.070;2022-12-20T07:03:23;98266.19;;;-0.15;100.00
16030;BME280;34770;49.272;11.070;2022-12-20T07:05:53;98261.28;;;-0.13;100.00
16030;BME280;34770;49.272;11.070;2022-12-20T07:08:20;98262.09;;;-0.12;100.00
16030;BME280;34770;49.272;11.070;2022-12-20T07:10:46;98262.63;;;-0.05;100.00
16030;BME280;34770;49.272;11.070;2022-12-20T07:13:11;98267.03;;;-0.04;100.00
16030;BME280;34770;49.272;11.070;2022-12-20T07:15:36;98260.47;;;-0.08;100.00
16030;BME280;34770;49.272;11.070;2022-12-20T07:18:02;98258.81;;;-0.09;100.00
16030;BME280;34770;49.272;11.070;2022-12-20T07:20:28;98250.63;;;-0.14;100.00
16030;BME280;34770;49.272;11.070;2022-12-20T07:22:54;98259.09;;;-0.06;100.00
16030;BME280;34770;49.272;11.070;2022-12-20T07:25:19;98248.97;;;-0.10;100.00
16030;BME280;34770;49.272;11.070;2022-12-20T07:27:48;98257.72;;;-0.03;100.00
16030;BME280;34770;49.272;11.070;2022-12-20T07:30:17;98258.81;;;-0.04;100.00
16030;BME280;34770;49.272;11.070;2022-12-20T07:32:43;98256.09;;;-0.09;100.00
16030;BME280;34770;49.272;11.070;2022-12-20T07:35:09;98239.38;;;-0.08;100.00
16030;BME280;34770;49.272;11.070;2022-12-20T07:37:35;98250.88;;;-0.01;100.00
16030;BME280;34770;49.272;11.070;2022-12-20T07:40:00;98229.28;;;-0.07;100.00
16030;BME280;34770;49.272;11.070;2022-12-20T07:42:26;98256.09;;;0.06;100.00
16030;BME280;34770;49.272;11.070;2022-12-20T07:44:51;98257.69;;;0.07;100.00
16030;BME280;34770;49.272;11.070;2022-12-20T07:47:17;98243.22;;;0.02;100.00
16030;BME280;34770;49.272;11.070;2022-12-20T07:49:42;98256.06;;;0.11;100.00
16030;BME280;34770;49.272;11.070;2022-12-20T07:52:09;98247.59;;;0.08;100.00
16030;BME280;34770;49.272;11.070;2022-12-20T07:54:41;98246.75;;;0.23;100.00
16030;BME280;34770;49.272;11.070;2022-12-20T07:57:34;98214.75;;;0.03;100.00
16030;BME280;34770;49.272;11.070;2022-12-20T08:00:03;98219.38;;;0.07;100.00
16030;BME280;34770;49.272;11.070;2022-12-20T08:02:36;98247.28;;;0.25;100.00
16030;BME280;34770;49.272;11.070;2022-12-20T08:05:04;98206.00;;;0.01;100.00
16030;BME280;34770;49.272;11.070;2022-12-20T08:07:31;98239.91;;;0.20;100.00
16030;BME280;34770;49.272;11.070;2022-12-20T08:09:57;98243.44;;;0.31;100.00
16030;BME280;34770;49.272;11.070;2022-12-20T08:12:24;98241.25;;;0.33;100.00
16030;BME280;34770;49.272;11.070;2022-12-20T08:14:51;98241.78;;;0.35;100.00
16030;BME280;34770;49.272;11.070;2022-12-20T08:17:20;98192.53;;;0.14;100.00
16030;BME280;34770;49.272;11.070;2022-12-20T08:19:46;98220.16;;;0.34;100.00
16030;BME280;34770;49.272;11.070;2022-12-20T08:22:13;98224.53;;;0.40;100.00
16030;BME280;34770;49.272;11.070;2022-12-20T08:24:38;98208.13;;;0.29;100.00
16030;BME280;34770;49.272;11.070;2022-12-20T08:27:03;98201.81;;;0.34;100.00
16030;BME280;34770;49.272;11.070;2022-12-20T08:29:29;98206.72;;;0.47;100.00
16030;BME280;34770;49.272;11.070;2022-12-20T08:31:54;98203.69;;;0.49;100.00
16030;BME280;34770;49.272;11.070;2022-12-20T08:34:19;98206.69;;;0.53;100.00
16030;BME280;34770;49.272;11.070;2022-12-20T08:36:45;98202.56;;;0.55;100.00
16030;BME280;34770;49.272;11.070;2022-12-20T08:39:10;98199.28;;;0.58;100.00
16030;BME280;34770;49.272;11.070;2022-12-20T08:41:36;98189.69;;;0.61;100.00
16030;BME280;34770;49.272;11.070;2022-12-20T08:44:03;98194.25;;;0.76;100.00
16030;BME280;34770;49.272;11.070;2022-12-20T08:46:28;98201.09;;;0.78;100.00
16030;BME280;34770;49.272;11.070;2022-12-20T08:48:53;98208.78;;;0.82;100.00
16030;BME280;34770;49.272;11.070;2022-12-20T08:51:19;98203.81;;;0.84;100.00
16030;BME280;34770;49.272;11.070;2022-12-20T08:53:44;98205.72;;;0.93;100.00
16030;BME280;34770;49.272;11.070;2022-12-20T08:56:11;98196.34;;;0.94;100.00
16030;BME280;34770;49.272;11.070;2022-12-20T08:58:37;98185.91;;;1.02;100.00
16030;BME280;34770;49.272;11.070;2022-12-20T09:01:14;98194.69;;;1.04;100.00
16030;BME280;34770;49.272;11.070;2022-12-20T09:03:40;98187.81;;;1.06;100.00
16030;BME280;34770;49.272;11.070;2022-12-20T09:06:08;98197.88;;;1.16;100.00
16030;BME280;34770;49.272;11.070;2022-12-20T09:08:35;98186.91;;;1.21;100.00
16030;BME280;34770;49.272;11.070;2022-12-20T09:11:12;98182.47;;;1.25;100.00
16030;BME280;34770;49.272;11.070;2022-12-20T09:13:39;98182.19;;;1.32;100.00
16030;BME280;34770;49.272;11.070;2022-12-20T09:16:06;98182.41;;;1.36;100.00
16030;BME280;34770;49.272;11.070;2022-12-20T09:18:32;98185.69;;;1.38;100.00
16030;BME280;34770;49.272;11.070;2022-12-20T09:21:02;98189.47;;;1.47;100.00
16030;BME280;34770;49.272;11.070;2022-12-20T09:23:28;98179.59;;;1.46;100.00
16030;BME280;34770;49.272;11.070;2022-12-20T09:25:55;98191.84;;;1.59;100.00
16030;BME280;34770;49.272;11.070;2022-12-20T09:28:25;98191.22;;;1.67;100.00
16030;BME280;34770;49.272;11.070;2022-12-20T09:30:50;98182.34;;;1.81;100.00
16030;BME280;34770;49.272;11.070;2022-12-20T09:33:15;98179.84;;;1.84;100.00
16030;BME280;34770;49.272;11.070;2022-12-20T09:35:47;98142.91;;;1.71;100.00
16030;BME280;34770;49.272;11.070;2022-12-20T09:38:12;98174.91;;;2.11;100.00
16030;BME280;34770;49.272;11.070;2022-12-20T09:40:44;98173.97;;;2.20;100.00
16030;BME280;34770;49.272;11.070;2022-12-20T09:43:10;98171.19;;;2.26;100.00
16030;BME280;34770;49.272;11.070;2022-12-20T09:45:36;98171.91;;;2.36;100.00
16030;BME280;34770;49.272;11.070;2022-12-20T09:48:02;98173.81;;;2.36;100.00
16030;BME280;34770;49.272;11.070;2022-12-20T09:50:43;98184.41;;;2.48;100.00
16030;BME280;34770;49.272;11.070;2022-12-20T09:53:21;98179.38;;;2.55;100.00
16030;BME280;34770;49.272;11.070;2022-12-20T09:56:04;98171.00;;;2.65;100.00
16030;BME280;34770;49.272;11.070;2022-12-20T09:58:41;98168.84;;;2.62;100.00
16030;BME280;34770;49.272;11.070;2022-12-20T10:01:16;98166.19;;;2.76;100.00
16030;BME280;34770;49.272;11.070;2022-12-20T10:03:42;98152.75;;;2.75;100.00
16030;BME280;34770;49.272;11.070;2022-12-20T10:08:59;98143.63;;;2.79;100.00
16030;BME280;34770;49.272;11.070;2022-12-20T10:11:38;98140.56;;;2.81;100.00
16030;BME280;34770;49.272;11.070;2022-12-20T10:14:18;98134.38;;;2.70;100.00
16030;BME280;34770;49.272;11.070;2022-12-20T10:20:33;98123.16;;;2.66;100.00
16030;BME280;34770;49.272;11.070;2022-12-20T10:25:50;98132.97;;;2.53;100.00
16030;BME280;34770;49.272;11.070;2022-12-20T10:28:16;98113.84;;;2.43;100.00
16030;BME280;34770;49.272;11.070;2022-12-20T10:30:43;98107.53;;;2.43;100.00
16030;BME280;34770;49.272;11.070;2022-12-20T10:33:17;98104.50;;;2.44;100.00
16030;BME280;34770;49.272;11.070;2022-12-20T10:35:43;98092.97;;;2.42;100.00
16030;BME280;34770;49.272;11.070;2022-12-20T10:38:11;98097.28;;;2.48;100.00
16030;BME280;34770;49.272;11.070;2022-12-20T10:40:43;98076.78;;;2.41;100.00
16030;BME280;34770;49.272;11.070;2022-12-20T10:43:20;98088.59;;;2.41;100.00
16030;BME280;34770;49.272;11.070;2022-12-20T10:48:34;98075.47;;;2.57;100.00
16030;BME280;34770;49.272;11.070;2022-12-20T10:51:07;98074.88;;;2.60;100.00
16030;BME280;34770;49.272;11.070;2022-12-20T10:53:50;98070.50;;;2.59;100.00
16030;BME280;34770;49.272;11.070;2022-12-20T10:58:57;98081.44;;;2.64;100.00
16030;BME280;34770;49.272;11.070;2022-12-20T11:01:34;98070.50;;;2.59;100.00
16030;BME280;34770;49.272;11.070;2022-12-20T11:04:03;98053.84;;;2.50;100.00
16030;BME280;34770;49.272;11.070;2022-12-20T11:06:42;98054.53;;;2.61;100.00
16030;BME280;34770;49.272;11.070;2022-12-20T11:09:24;98056.91;;;2.68;100.00
16030;BME280;34770;49.272;11.070;2022-12-20T11:12:06;98053.56;;;2.71;100.00
16030;BME280;34770;49.272;11.070;2022-12-20T11:14:34;98037.47;;;2.64;100.00
16030;BME280;34770;49.272;11.070;2022-12-20T11:17:14;98026.53;;;2.59;100.00
16030;BME280;34770;49.272;11.070;2022-12-20T11:23:06;98044.50;;;2.70;100.00
16030;BME280;34770;49.272;11.070;2022-12-20T11:34:14;98022.97;;;2.78;100.00
16030;BME280;34770;49.272;11.070;2022-12-20T11:37:04;98036.84;;;2.86;100.00
16030;BME280;34770;49.272;11.070;2022-12-20T11:45:22;98026.06;;;2.90;100.00
16030;BME280;34770;49.272;11.070;2022-12-20T11:56:10;98016.19;;;2.89;100.00
16030;BME280;34770;49.272;11.070;2022-12-20T11:58:58;98023.09;;;3.06;100.00
16030;BME280;34770;49.272;11.070;2022-12-20T12:01:31;98006.16;;;2.98;100.00
16030;BME280;34770;49.272;11.070;2022-12-20T12:04:19;98033.91;;;3.16;100.00
16030;BME280;34770;49.272;11.070;2022-12-20T12:06:50;98024.75;;;3.21;100.00
16030;BME280;34770;49.272;11.070;2022-12-20T12:09:35;98014.56;;;3.21;100.00
16030;BME280;34770;49.272;11.070;2022-12-20T12:12:04;98009.03;;;3.21;100.00
16030;BME280;34770;49.272;11.070;2022-12-20T12:17:30;97998.91;;;3.35;100.00
16030;BME280;34770;49.272;11.070;2022-12-20T12:19:54;97999.31;;;3.43;100.00
16030;BME280;34770;49.272;11.070;2022-12-20T12:22:26;97983.22;;;3.36;100.00
16030;BME280;34770;49.272;11.070;2022-12-20T12:24:57;97977.94;;;3.40;100.00
16030;BME280;34770;49.272;11.070;2022-12-20T12:27:26;97981.16;;;3.42;100.00
16030;BME280;34770;49.272;11.070;2022-12-20T12:29:53;97986.41;;;3.43;100.00
16030;BME280;34770;49.272;11.070;2022-12-20T12:32:35;97983.50;;;3.34;100.00
16030;BME280;34770;49.272;11.070;2022-12-20T12:35:17;97964.03;;;3.31;100.00
16030;BME280;34770;49.272;11.070;2022-12-20T12:38:08;97959.47;;;3.26;100.00
16030;BME280;34770;49.272;11.070;2022-12-20T12:41:18;97988.19;;;3.34;100.00
16030;BME280;34770;49.272;11.070;2022-12-20T12:43:55;97973.13;;;3.31;100.00
16030;BME280;34770;49.272;11.070;2022-12-20T12:46:29;97978.94;;;3.30;100.00
16030;BME280;34770;49.272;11.070;2022-12-20T12:49:09;97976.47;;;3.28;100.00
16030;BME280;34770;49.272;11.070;2022-12-20T12:51:41;97974.94;;;3.22;100.00
16030;BME280;34770;49.272;11.070;2022-12-20T12:56:39;97950.16;;;3.22;100.00
16030;BME280;34770;49.272;11.070;2022-12-20T13:01:51;97943.47;;;3.42;100.00
16030;BME280;34770;49.272;11.070;2022-12-20T13:09:35;97932.19;;;3.58;100.00
16030;BME280;34770;49.272;11.070;2022-12-20T13:14:58;97906.59;;;3.43;100.00
16030;BME280;34770;49.272;11.070;2022-12-20T13:19:54;97917.78;;;3.61;100.00
16030;BME280;34770;49.272;11.070;2022-12-20T13:22:24;97918.63;;;3.61;100.00
16030;BME280;34770;49.272;11.070;2022-12-20T13:24:57;97908.59;;;3.51;100.00
16030;BME280;34770;49.272;11.070;2022-12-20T13:30:00;97918.41;;;3.44;100.00
16030;BME280;34770;49.272;11.070;2022-12-20T13:35:26;97917.56;;;3.29;100.00
16030;BME280;34770;49.272;11.070;2022-12-20T13:38:08;97917.78;;;3.19;100.00
16030;BME280;34770;49.272;11.070;2022-12-20T13:40:58;97933.25;;;3.15;100.00
16030;BME280;34770;49.272;11.070;2022-12-20T13:43:28;97942.19;;;3.07;100.00
16030;BME280;34770;49.272;11.070;2022-12-20T13:51:02;97923.81;;;2.88;100.00
16030;BME280;34770;49.272;11.070;2022-12-20T13:53:28;97944.06;;;2.92;100.00
16030;BME280;34770;49.272;11.070;2022-12-20T13:55:53;97956.50;;;2.90;100.00
16030;BME280;34770;49.272;11.070;2022-12-20T13:58:32;97979.34;;;2.90;100.00
16030;BME280;34770;49.272;11.070;2022-12-20T14:01:05;97975.47;;;2.91;100.00
16030;BME280;34770;49.272;11.070;2022-12-20T14:03:32;97961.19;;;2.89;100.00
16030;BME280;34770;49.272;11.070;2022-12-20T14:06:09;97967.59;;;2.84;100.00
16030;BME280;34770;49.272;11.070;2022-12-20T14:08:38;97952.31;;;2.78;100.00
16030;BME280;34770;49.272;11.070;2022-12-20T14:13:38;97884.91;;;2.48;100.00
16030;BME280;34770;49.272;11.070;2022-12-20T14:16:13;97910.50;;;2.62;100.00
16030;BME280;34770;49.272;11.070;2022-12-20T14:18:39;97920.44;;;2.77;100.00
16030;BME280;34770;49.272;11.070;2022-12-20T14:21:06;97921.75;;;2.80;100.00
16030;BME280;34770;49.272;11.070;2022-12-20T14:26:04;97914.19;;;2.71;100.00
16030;BME280;34770;49.272;11.070;2022-12-20T14:28:44;97905.09;;;2.90;100.00